Time;durP1;ratioP1;P1;durP2;ratioP2;P2;SDS_P1;SDS_P2;PMS_P1;PMS_P2;Temp;Humidity;BMP_temperature;BMP_pressure;BME280_temperature;BME280_humidity;BME280_pressure;Samples;Min_cycle;Max_cycle;Signal;HPM_P1;HPM_P2
2022/04/30 00:00:51;;;;;;;3.88;2.90;;;;;;;;;;5040082;28;20402;-67
2022/04/30 00:03:19;;;;;;;2.92;2.63;;;;;;;;;;5036595;28;20060;-67
2022/04/30 00:05:44;;;;;;;4.03;3.30;;;;;;;;;;5033672;28;20036;-67
2022/04/30 00:08:10;;;;;;;3.85;2.40;;;;;;;;;;5033792;28;20028;-67
2022/04/30 00:10:38;;;;;;;5.47;2.40;;;;;;;;;;5039342;28;20470;-67
2022/04/30 00:13:06;;;;;;;4.97;2.65;;;;;;;;;;5045645;28;20052;-67
2022/04/30 00:15:34;;;;;;;10.05;3.03;;;;;;;;;;5042113;28;20031;-67
2022/04/30 00:18:01;;;;;;;4.43;3.20;;;;;;;;;;5045729;28;20381;-67
2022/04/30 00:20:27;;;;;;;5.38;2.83;;;;;;;;;;5040246;28;20134;-67
2022/04/30 00:22:53;;;;;;;5.28;2.97;;;;;;;;;;5044824;28;20433;-68
2022/04/30 00:25:19;;;;;;;3.10;2.80;;;;;;;;;;5043762;28;20520;-67
2022/04/30 00:27:44;;;;;;;4.50;3.10;;;;;;;;;;5042372;28;20033;-67
2022/04/30 00:30:11;;;;;;;9.30;3.20;;;;;;;;;;5046734;28;20033;-67
2022/04/30 00:32:37;;;;;;;6.68;3.38;;;;;;;;;;5047418;28;20094;-67
2022/04/30 00:35:03;;;;;;;3.92;3.50;;;;;;;;;;5042991;28;20064;-67
2022/04/30 00:37:29;;;;;;;8.82;4.45;;;;;;;;;;5044245;28;20029;-67
2022/04/30 00:39:54;;;;;;;4.47;3.70;;;;;;;;;;5041736;28;20168;-67
2022/04/30 00:42:20;;;;;;;3.95;3.13;;;;;;;;;;5041533;28;20066;-67
2022/04/30 00:44:47;;;;;;;5.07;3.20;;;;;;;;;;5049490;28;20025;-67
2022/04/30 00:47:18;;;;;;;6.10;2.90;;;;;;;;;;5039286;28;20142;-68
2022/04/30 00:49:45;;;;;;;3.45;2.85;;;;;;;;;;5042433;28;20037;-67
2022/04/30 00:52:15;;;;;;;4.75;3.17;;;;;;;;;;5042803;28;20036;-67
2022/04/30 00:54:44;;;;;;;7.13;2.72;;;;;;;;;;5044639;28;20052;-67
2022/04/30 00:57:14;;;;;;;5.35;3.72;;;;;;;;;;5046953;28;20556;-67
2022/04/30 00:59:40;;;;;;;5.50;3.13;;;;;;;;;;5041004;28;20087;-68
2022/04/30 01:02:10;;;;;;;7.05;3.25;;;;;;;;;;5044963;28;20025;-67
2022/04/30 01:04:36;;;;;;;5.97;3.00;;;;;;;;;;5047944;28;20100;-68
2022/04/30 01:07:08;;;;;;;7.45;3.10;;;;;;;;;;5040628;28;20116;-67
2022/04/30 01:09:38;;;;;;;3.92;2.95;;;;;;;;;;5043568;28;20048;-67
2022/04/30 01:12:09;;;;;;;4.53;2.65;;;;;;;;;;5041225;28;20031;-67
2022/04/30 01:14:35;;;;;;;4.88;3.67;;;;;;;;;;5045039;28;20034;-67
2022/04/30 01:17:05;;;;;;;6.47;3.25;;;;;;;;;;5047144;28;20029;-67
2022/04/30 01:19:37;;;;;;;3.33;3.08;;;;;;;;;;5041035;28;20033;-67
2022/04/30 01:22:09;;;;;;;3.53;3.17;;;;;;;;;;5038271;28;20053;-67
2022/04/30 01:24:37;;;;;;;5.32;3.05;;;;;;;;;;5037788;28;20036;-67
2022/04/30 01:27:05;;;;;;;5.05;3.20;;;;;;;;;;5043642;28;20485;-67
2022/04/30 01:29:32;;;;;;;3.67;3.17;;;;;;;;;;5039688;28;20029;-67
2022/04/30 01:37:35;;;;;;;4.28;2.97;;;;;;;;;;5038776;28;20060;-67
2022/04/30 01:40:10;;;;;;;4.00;3.33;;;;;;;;;;5037683;28;20025;-67
2022/04/30 01:42:41;;;;;;;3.58;2.90;;;;;;;;;;5041169;28;20715;-67
2022/04/30 01:45:08;;;;;;;3.03;2.83;;;;;;;;;;5036787;28;20044;-67
2022/04/30 01:47:36;;;;;;;3.03;2.70;;;;;;;;;;5036991;28;24888;-67
2022/04/30 01:50:03;;;;;;;4.93;3.00;;;;;;;;;;5035754;28;20045;-67
2022/04/30 01:52:30;;;;;;;4.50;2.63;;;;;;;;;;5039492;28;20094;-67
2022/04/30 01:54:56;;;;;;;5.50;2.85;;;;;;;;;;5038264;28;20444;-67
2022/04/30 01:57:23;;;;;;;4.72;2.90;;;;;;;;;;5037465;28;20033;-67
2022/04/30 01:59:59;;;;;;;4.63;2.97;;;;;;;;;;5036325;28;20029;-67
2022/04/30 02:02:34;;;;;;;4.72;2.83;;;;;;;;;;5033863;28;20034;-67
2022/04/30 02:05:03;;;;;;;3.80;2.80;;;;;;;;;;5040179;28;20121;-67
2022/04/30 02:07:31;;;;;;;5.40;2.85;;;;;;;;;;5042995;28;20025;-67
2022/04/30 02:09:58;;;;;;;3.90;3.03;;;;;;;;;;5035035;28;20063;-67
2022/04/30 02:12:26;;;;;;;3.95;2.80;;;;;;;;;;5042791;28;20035;-67
2022/04/30 02:14:53;;;;;;;5.05;2.70;;;;;;;;;;5041778;28;20079;-67
2022/04/30 02:17:20;;;;;;;8.40;2.85;;;;;;;;;;5036702;28;20099;-67
2022/04/30 02:22:32;;;;;;;5.32;3.30;;;;;;;;;;5036831;28;20029;-67
2022/04/30 02:24:59;;;;;;;9.77;2.80;;;;;;;;;;5035442;28;20525;-67
2022/04/30 02:27:24;;;;;;;3.25;2.70;;;;;;;;;;5038305;28;20047;-67
2022/04/30 02:29:50;;;;;;;3.53;2.50;;;;;;;;;;5038162;28;20039;-67
2022/04/30 02:32:17;;;;;;;2.60;2.40;;;;;;;;;;5036064;28;20553;-68
2022/04/30 02:34:42;;;;;;;2.78;2.58;;;;;;;;;;5039647;28;20021;-67
2022/04/30 02:37:13;;;;;;;5.03;2.47;;;;;;;;;;5032895;28;20129;-67
2022/04/30 02:39:38;;;;;;;3.10;2.75;;;;;;;;;;5038840;28;20025;-67
2022/04/30 02:42:04;;;;;;;2.40;2.30;;;;;;;;;;5031930;28;20039;-66
2022/04/30 02:44:30;;;;;;;11.38;2.70;;;;;;;;;;5040414;28;20661;-67
2022/04/30 02:46:56;;;;;;;2.78;2.35;;;;;;;;;;5033548;28;20041;-68
2022/04/30 02:49:22;;;;;;;3.50;3.08;;;;;;;;;;5039291;28;20079;-67
2022/04/30 02:51:49;;;;;;;4.07;2.60;;;;;;;;;;5035182;28;20025;-67
2022/04/30 02:54:15;;;;;;;2.88;2.65;;;;;;;;;;5038104;28;20087;-67
2022/04/30 02:56:42;;;;;;;4.22;3.00;;;;;;;;;;5037934;28;20033;-67
2022/04/30 03:01:53;;;;;;;3.50;3.20;;;;;;;;;;5038635;28;20025;-67
2022/04/30 03:04:18;;;;;;;5.63;3.67;;;;;;;;;;5043747;28;20028;-67
2022/04/30 03:06:46;;;;;;;3.90;3.50;;;;;;;;;;5036943;28;20037;-67
2022/04/30 03:09:12;;;;;;;3.28;2.97;;;;;;;;;;5033949;28;20041;-67
2022/04/30 03:11:38;;;;;;;3.97;2.83;;;;;;;;;;5033740;28;20045;-67
2022/04/30 03:14:04;;;;;;;4.07;2.83;;;;;;;;;;5035468;28;20026;-67
2022/04/30 03:22:00;;;;;;;7.07;2.65;;;;;;;;;;5034542;28;20128;-67
2022/04/30 03:24:29;;;;;;;2.78;2.55;;;;;;;;;;5035971;28;20132;-67
2022/04/30 03:26:55;;;;;;;3.10;2.80;;;;;;;;;;5033468;28;20571;-67
2022/04/30 03:29:21;;;;;;;4.45;3.17;;;;;;;;;;5030645;28;20037;-67
2022/04/30 03:31:49;;;;;;;5.85;3.17;;;;;;;;;;5036809;28;20556;-67
2022/04/30 03:34:15;;;;;;;3.20;2.90;;;;;;;;;;5038755;28;20040;-67
2022/04/30 03:36:42;;;;;;;3.60;2.78;;;;;;;;;;5042587;28;20052;-67
2022/04/30 03:39:09;;;;;;;3.05;2.60;;;;;;;;;;5034106;28;20040;-67
2022/04/30 03:41:35;;;;;;;2.42;2.22;;;;;;;;;;5036875;28;20017;-67
2022/04/30 03:44:01;;;;;;;4.82;2.83;;;;;;;;;;5034517;28;20029;-67
2022/04/30 03:46:27;;;;;;;2.83;2.63;;;;;;;;;;5034648;28;20064;-67
2022/04/30 03:48:53;;;;;;;5.25;2.85;;;;;;;;;;5038704;28;20064;-68
2022/04/30 03:51:21;;;;;;;7.13;2.42;;;;;;;;;;5032918;28;20025;-68
2022/04/30 03:53:47;;;;;;;6.53;2.60;;;;;;;;;;5036514;28;20128;-68
2022/04/30 03:56:12;;;;;;;3.67;2.55;;;;;;;;;;5036342;28;20116;-67
2022/04/30 03:58:38;;;;;;;2.78;2.58;;;;;;;;;;5032695;28;20030;-67
2022/04/30 04:01:04;;;;;;;3.05;2.65;;;;;;;;;;5032901;28;20111;-67
2022/04/30 04:03:30;;;;;;;6.97;2.72;;;;;;;;;;5034933;28;20021;-67
2022/04/30 04:05:57;;;;;;;2.80;2.60;;;;;;;;;;5035844;28;20040;-67
2022/04/30 04:08:22;;;;;;;4.38;2.97;;;;;;;;;;5036015;28;20562;-67
2022/04/30 04:10:48;;;;;;;3.50;2.50;;;;;;;;;;5036683;28;20119;-67
2022/04/30 04:18:42;;;;;;;5.85;2.95;;;;;;;;;;5037313;28;20040;-67
2022/04/30 04:21:08;;;;;;;4.65;2.80;;;;;;;;;;5040167;28;20026;-67
2022/04/30 04:26:19;;;;;;;3.00;2.70;;;;;;;;;;5031896;28;20051;-67
2022/04/30 04:28:45;;;;;;;3.28;2.97;;;;;;;;;;5038480;28;20112;-67
2022/04/30 04:31:11;;;;;;;3.25;2.95;;;;;;;;;;5039119;28;20060;-66
2022/04/30 04:33:37;;;;;;;2.53;2.40;;;;;;;;;;5034938;28;20112;-67
2022/04/30 04:36:03;;;;;;;10.18;3.00;;;;;;;;;;5034826;28;20558;-67
2022/04/30 04:38:30;;;;;;;3.40;2.90;;;;;;;;;;5034506;28;20052;-67
2022/04/30 04:40:56;;;;;;;5.38;2.97;;;;;;;;;;5034793;28;20037;-67
2022/04/30 04:43:22;;;;;;;4.35;2.90;;;;;;;;;;5033927;28;20025;-67
2022/04/30 04:45:48;;;;;;;5.18;2.85;;;;;;;;;;5036718;28;20817;-67
2022/04/30 04:48:14;;;;;;;4.38;2.75;;;;;;;;;;5031603;28;20060;-67
2022/04/30 04:50:41;;;;;;;4.78;2.85;;;;;;;;;;5032611;28;20022;-67
2022/04/30 04:53:06;;;;;;;3.88;3.00;;;;;;;;;;5033236;28;20095;-67
2022/04/30 04:55:33;;;;;;;6.97;3.13;;;;;;;;;;5041080;28;20049;-67
2022/04/30 04:57:59;;;;;;;9.52;3.30;;;;;;;;;;5040824;28;20052;-67
2022/04/30 05:00:24;;;;;;;4.35;2.88;;;;;;;;;;5038513;28;20075;-67
2022/04/30 05:02:53;;;;;;;3.60;3.08;;;;;;;;;;5039619;28;20450;-67
2022/04/30 05:05:19;;;;;;;4.75;3.08;;;;;;;;;;5038090;28;20179;-67
2022/04/30 05:07:44;;;;;;;7.80;2.80;;;;;;;;;;5041576;28;20028;-67
2022/04/30 05:10:10;;;;;;;4.60;2.53;;;;;;;;;;5041503;28;20033;-67
2022/04/30 05:12:36;;;;;;;4.00;2.60;;;;;;;;;;5041279;28;20033;-67
2022/04/30 05:15:01;;;;;;;2.88;2.65;;;;;;;;;;5038888;28;20064;-67
2022/04/30 05:17:28;;;;;;;3.13;2.58;;;;;;;;;;5036361;28;20386;-67
2022/04/30 05:19:54;;;;;;;2.70;2.50;;;;;;;;;;5041076;28;20029;-67
2022/04/30 05:22:20;;;;;;;2.58;2.38;;;;;;;;;;5038597;28;20044;-67
2022/04/30 05:24:45;;;;;;;5.70;2.60;;;;;;;;;;5034812;28;20048;-67
2022/04/30 05:27:11;;;;;;;3.65;2.65;;;;;;;;;;5042678;28;20490;-67
2022/04/30 05:29:37;;;;;;;9.52;2.80;;;;;;;;;;5036542;28;20022;-67
2022/04/30 05:32:04;;;;;;;6.18;3.08;;;;;;;;;;5034559;28;20041;-67
2022/04/30 05:34:29;;;;;;;3.08;2.47;;;;;;;;;;5041703;28;20025;-67
2022/04/30 05:36:55;;;;;;;5.20;2.60;;;;;;;;;;5044121;28;20036;-67
2022/04/30 05:39:21;;;;;;;3.45;2.97;;;;;;;;;;5038285;28;20086;-67
2022/04/30 05:41:46;;;;;;;3.60;3.10;;;;;;;;;;5037440;28;20029;-67
2022/04/30 05:44:13;;;;;;;3.45;2.90;;;;;;;;;;5038480;28;20466;-67
2022/04/30 05:46:38;;;;;;;4.40;2.85;;;;;;;;;;5038087;28;20041;-67
2022/04/30 05:49:04;;;;;;;3.90;2.55;;;;;;;;;;5039964;28;20045;-67
2022/04/30 05:51:30;;;;;;;3.90;2.72;;;;;;;;;;5039168;28;20075;-67
2022/04/30 05:53:57;;;;;;;3.13;2.83;;;;;;;;;;5039430;28;20040;-67
2022/04/30 05:56:24;;;;;;;4.10;2.83;;;;;;;;;;5040228;28;20077;-67
2022/04/30 05:58:50;;;;;;;6.88;2.95;;;;;;;;;;5035398;28;20506;-67
2022/04/30 06:01:15;;;;;;;3.08;2.72;;;;;;;;;;5039981;28;20029;-67
2022/04/30 06:03:41;;;;;;;3.72;2.80;;;;;;;;;;5040998;28;20079;-67
2022/04/30 06:06:07;;;;;;;6.47;3.15;;;;;;;;;;5038038;28;20043;-67
2022/04/30 06:08:33;;;;;;;3.28;2.80;;;;;;;;;;5033967;28;20070;-68
2022/04/30 06:11:01;;;;;;;3.30;2.90;;;;;;;;;;5041255;28;20053;-67
2022/04/30 06:13:27;;;;;;;3.67;2.60;;;;;;;;;;5044481;28;20026;-67
2022/04/30 06:15:52;;;;;;;3.72;2.60;;;;;;;;;;5043958;28;20033;-67
2022/04/30 06:18:20;;;;;;;2.63;2.42;;;;;;;;;;5038796;28;20057;-67
2022/04/30 06:20:46;;;;;;;8.45;3.10;;;;;;;;;;5036013;28;20035;-67
2022/04/30 06:23:18;;;;;;;5.57;2.67;;;;;;;;;;5033382;28;20093;-67
2022/04/30 06:25:45;;;;;;;3.50;3.00;;;;;;;;;;5039719;28;20041;-67
2022/04/30 06:28:12;;;;;;;5.63;2.67;;;;;;;;;;5038575;28;20045;-67
2022/04/30 06:30:39;;;;;;;3.13;2.90;;;;;;;;;;5037447;28;20028;-67
2022/04/30 06:33:05;;;;;;;4.78;2.72;;;;;;;;;;5036544;28;20029;-67
2022/04/30 06:35:31;;;;;;;3.67;2.60;;;;;;;;;;5035866;28;20558;-66
2022/04/30 06:37:56;;;;;;;2.72;2.53;;;;;;;;;;5037516;28;20034;-67
2022/04/30 06:40:22;;;;;;;3.42;2.60;;;;;;;;;;5035508;28;20033;-67
2022/04/30 06:42:48;;;;;;;6.45;2.33;;;;;;;;;;5037430;28;20052;-67
2022/04/30 06:45:14;;;;;;;4.63;2.60;;;;;;;;;;5037871;28;20069;-67
2022/04/30 06:47:40;;;;;;;2.85;2.50;;;;;;;;;;5037547;28;20060;-67
2022/04/30 06:50:07;;;;;;;2.75;2.45;;;;;;;;;;5034789;28;20044;-62
2022/04/30 06:52:33;;;;;;;3.45;2.67;;;;;;;;;;5041225;28;20098;-67
2022/04/30 06:57:45;;;;;;;4.25;2.60;;;;;;;;;;5038857;28;20036;-67
2022/04/30 07:02:56;;;;;;;3.05;2.70;;;;;;;;;;5035325;28;20033;-67
2022/04/30 07:05:22;;;;;;;5.28;2.75;;;;;;;;;;5037155;28;20082;-67
2022/04/30 07:07:48;;;;;;;4.22;2.70;;;;;;;;;;5040484;28;20113;-67
2022/04/30 07:10:14;;;;;;;5.05;2.92;;;;;;;;;;5036057;28;20029;-67
2022/04/30 07:12:40;;;;;;;9.27;3.08;;;;;;;;;;5033790;28;20032;-67
2022/04/30 07:15:06;;;;;;;4.07;2.58;;;;;;;;;;5035638;28;20474;-67
2022/04/30 07:17:32;;;;;;;6.32;2.70;;;;;;;;;;5034761;28;20037;-67
2022/04/30 07:19:58;;;;;;;7.07;3.03;;;;;;;;;;5034311;28;20112;-67
2022/04/30 07:22:23;;;;;;;6.55;2.67;;;;;;;;;;5037656;28;20040;-67
2022/04/30 07:24:51;;;;;;;4.93;3.03;;;;;;;;;;5039550;28;20083;-67
2022/04/30 07:27:16;;;;;;;6.10;3.10;;;;;;;;;;5041165;28;20393;-67
2022/04/30 07:29:43;;;;;;;2.75;2.45;;;;;;;;;;5045948;28;20025;-67
2022/04/30 07:32:09;;;;;;;3.53;2.65;;;;;;;;;;5037413;28;20049;-67
2022/04/30 07:34:35;;;;;;;5.13;2.63;;;;;;;;;;5040267;28;20025;-67
2022/04/30 07:37:01;;;;;;;4.15;2.65;;;;;;;;;;5035588;28;20025;-66
2022/04/30 07:39:27;;;;;;;2.90;2.67;;;;;;;;;;5038917;28;20033;-66
2022/04/30 07:41:54;;;;;;;5.80;2.65;;;;;;;;;;5036830;28;20044;-67
2022/04/30 07:44:21;;;;;;;4.30;2.90;;;;;;;;;;5036709;28;20025;-67
2022/04/30 07:46:47;;;;;;;2.95;2.50;;;;;;;;;;5038312;28;20131;-66
2022/04/30 07:49:12;;;;;;;5.13;2.83;;;;;;;;;;5034258;28;20509;-67
2022/04/30 07:51:42;;;;;;;3.53;3.17;;;;;;;;;;5040226;28;20054;-67
2022/04/30 07:54:09;;;;;;;3.25;2.92;;;;;;;;;;5037718;28;20073;-66
2022/04/30 07:56:35;;;;;;;5.07;3.60;;;;;;;;;;5037932;28;20117;-67
2022/04/30 07:59:01;;;;;;;6.88;2.90;;;;;;;;;;5039123;28;20418;-67
2022/04/30 08:01:27;;;;;;;4.85;2.95;;;;;;;;;;5037137;28;20029;-66
2022/04/30 08:03:53;;;;;;;4.00;2.60;;;;;;;;;;5035435;28;20664;-66
2022/04/30 08:06:18;;;;;;;4.32;2.90;;;;;;;;;;5034706;28;20033;-66
2022/04/30 08:08:44;;;;;;;4.57;2.83;;;;;;;;;;5036642;28;20068;-67
2022/04/30 08:11:10;;;;;;;4.43;2.85;;;;;;;;;;5037877;28;20386;-67
2022/04/30 08:13:36;;;;;;;4.25;2.75;;;;;;;;;;5036619;28;20044;-66
2022/04/30 08:16:02;;;;;;;6.03;2.95;;;;;;;;;;5035703;28;20041;-66
2022/04/30 08:18:28;;;;;;;4.70;2.70;;;;;;;;;;5038692;28;20090;-66
2022/04/30 08:20:54;;;;;;;7.15;2.70;;;;;;;;;;5034791;28;20494;-66
2022/04/30 08:23:20;;;;;;;3.45;2.65;;;;;;;;;;5039019;28;20072;-66
2022/04/30 08:25:46;;;;;;;4.63;2.58;;;;;;;;;;5036073;28;20124;-66
2022/04/30 08:28:12;;;;;;;4.07;2.60;;;;;;;;;;5039680;28;20033;-67
2022/04/30 08:30:38;;;;;;;5.63;2.83;;;;;;;;;;5040012;28;20028;-67
2022/04/30 08:33:04;;;;;;;3.47;2.55;;;;;;;;;;5039062;28;20035;-67
2022/04/30 08:35:29;;;;;;;3.45;2.70;;;;;;;;;;5044517;28;20720;-67
2022/04/30 08:37:55;;;;;;;3.45;2.65;;;;;;;;;;5042032;28;20045;-66
2022/04/30 08:40:21;;;;;;;4.93;2.78;;;;;;;;;;5042379;28;20642;-66
2022/04/30 08:42:47;;;;;;;5.25;2.65;;;;;;;;;;5042389;28;20029;-65
2022/04/30 08:45:13;;;;;;;6.20;2.92;;;;;;;;;;5041372;28;20025;-66
2022/04/30 08:47:41;;;;;;;5.28;2.75;;;;;;;;;;5036860;28;20079;-66
2022/04/30 08:50:11;;;;;;;4.40;2.60;;;;;;;;;;5045406;28;20082;-66
2022/04/30 08:52:38;;;;;;;3.38;2.40;;;;;;;;;;5039563;28;20040;-66
2022/04/30 08:55:05;;;;;;;3.58;2.50;;;;;;;;;;5040437;28;20102;-68
2022/04/30 08:57:30;;;;;;;3.55;2.33;;;;;;;;;;5044953;28;20041;-66
2022/04/30 08:59:58;;;;;;;9.20;2.70;;;;;;;;;;5044801;28;20087;-66
2022/04/30 09:02:23;;;;;;;6.22;2.42;;;;;;;;;;5040377;28;20111;-66
2022/04/30 09:04:50;;;;;;;6.07;2.95;;;;;;;;;;5041703;28;20112;-66
2022/04/30 09:07:18;;;;;;;8.95;2.58;;;;;;;;;;5038808;28;20033;-66
2022/04/30 09:09:44;;;;;;;2.70;2.50;;;;;;;;;;5040018;28;20117;-66
2022/04/30 09:12:12;;;;;;;3.38;2.70;;;;;;;;;;5041571;28;20517;-66
2022/04/30 09:14:40;;;;;;;3.30;2.75;;;;;;;;;;5042957;28;20135;-66
2022/04/30 09:17:09;;;;;;;6.90;2.75;;;;;;;;;;5037955;28;20063;-66
2022/04/30 09:19:53;;;;;;;3.63;2.60;;;;;;;;;;5041280;28;20033;-66
2022/04/30 09:22:31;;;;;;;6.20;2.50;;;;;;;;;;5041191;28;20033;-65
2022/04/30 09:24:58;;;;;;;26.70;3.75;;;;;;;;;;5035739;28;20037;-66
2022/04/30 09:27:25;;;;;;;5.40;2.50;;;;;;;;;;5047660;28;20086;-65
2022/04/30 09:29:52;;;;;;;4.63;2.40;;;;;;;;;;5037970;28;20063;-65
2022/04/30 09:32:19;;;;;;;8.70;2.97;;;;;;;;;;5037484;28;20061;-66
2022/04/30 09:37:41;;;;;;;4.53;2.90;;;;;;;;;;5043371;28;20036;-65
2022/04/30 09:40:13;;;;;;;11.73;3.10;;;;;;;;;;5038652;28;20033;-64
2022/04/30 09:42:42;;;;;;;6.18;3.05;;;;;;;;;;5040761;28;20064;-65
2022/04/30 09:45:09;;;;;;;6.90;2.63;;;;;;;;;;5039323;28;20049;-66
2022/04/30 09:47:35;;;;;;;9.00;2.83;;;;;;;;;;5035746;28;20042;-65
2022/04/30 09:55:31;;;;;;;5.68;2.33;;;;;;;;;;5037345;28;20074;-65
2022/04/30 09:57:58;;;;;;;6.82;2.85;;;;;;;;;;5038556;28;20120;-65
2022/04/30 10:00:24;;;;;;;2.58;2.38;;;;;;;;;;5051875;28;20025;-65
2022/04/30 10:03:00;;;;;;;5.63;2.08;;;;;;;;;;5041601;28;20403;-65
2022/04/30 10:05:26;;;;;;;3.05;2.17;;;;;;;;;;5035070;28;20021;-65
2022/04/30 10:07:53;;;;;;;17.83;3.03;;;;;;;;;;5039552;28;20079;-64
2022/04/30 10:10:25;;;;;;;39.33;6.93;;;;;;;;;;5037034;28;20908;-65
2022/04/30 10:13:20;;;;;;;8.05;2.67;;;;;;;;;;5039619;28;20075;-65
2022/04/30 10:15:51;;;;;;;6.30;2.15;;;;;;;;;;5039677;28;20124;-65
2022/04/30 10:18:19;;;;;;;6.60;2.40;;;;;;;;;;5038335;28;20022;-65
2022/04/30 10:20:52;;;;;;;7.03;2.78;;;;;;;;;;5037754;28;20298;-64
2022/04/30 10:23:18;;;;;;;3.08;2.05;;;;;;;;;;5034007;28;20087;-64
2022/04/30 10:25:48;;;;;;;3.83;2.33;;;;;;;;;;5038765;28;20030;-64
2022/04/30 10:28:21;;;;;;;7.07;2.55;;;;;;;;;;5037026;28;20037;-65
2022/04/30 10:31:04;;;;;;;7.35;2.30;;;;;;;;;;5041509;28;20413;-59
2022/04/30 10:33:32;;;;;;;5.32;2.60;;;;;;;;;;5042123;28;20095;-64
2022/04/30 10:36:09;;;;;;;9.05;2.78;;;;;;;;;;5041459;28;20434;-65
2022/04/30 10:38:35;;;;;;;9.07;2.40;;;;;;;;;;5036955;28;20141;-64
2022/04/30 10:41:03;;;;;;;8.20;2.42;;;;;;;;;;5039303;28;20118;-64
2022/04/30 10:43:42;;;;;;;4.30;2.03;;;;;;;;;;5032490;28;20033;-64
2022/04/30 10:46:18;;;;;;;7.00;2.38;;;;;;;;;;5038373;28;20044;-63
2022/04/30 10:48:44;;;;;;;4.20;2.33;;;;;;;;;;5038189;28;20037;-64
2022/04/30 10:51:12;;;;;;;5.57;2.30;;;;;;;;;;5034183;28;20047;-64
2022/04/30 10:53:45;;;;;;;7.82;2.42;;;;;;;;;;5033919;28;20509;-65
2022/04/30 10:56:13;;;;;;;8.52;2.25;;;;;;;;;;5040040;28;20086;-64
2022/04/30 10:58:41;;;;;;;5.72;3.00;;;;;;;;;;5035322;28;20473;-64
2022/04/30 11:01:16;;;;;;;9.55;2.80;;;;;;;;;;5037527;28;20033;-65
2022/04/30 11:03:42;;;;;;;3.65;2.00;;;;;;;;;;5041836;28;20033;-65
2022/04/30 11:06:12;;;;;;;13.25;2.80;;;;;;;;;;5037649;28;20440;-64
2022/04/30 11:08:38;;;;;;;3.20;1.90;;;;;;;;;;5040956;28;20519;-63
2022/04/30 11:11:04;;;;;;;3.55;2.25;;;;;;;;;;5040847;28;20029;-63
2022/04/30 11:13:30;;;;;;;6.38;1.92;;;;;;;;;;5040765;28;20078;-66
2022/04/30 11:16:00;;;;;;;7.78;2.05;;;;;;;;;;5037881;28;20144;-63
2022/04/30 11:18:26;;;;;;;6.78;2.28;;;;;;;;;;5034058;28;20036;-63
2022/04/30 11:21:00;;;;;;;9.70;2.33;;;;;;;;;;5036700;28;20045;-64
2022/04/30 11:23:25;;;;;;;4.25;2.10;;;;;;;;;;5038772;28;20059;-62
2022/04/30 11:25:51;;;;;;;8.93;2.00;;;;;;;;;;5039217;28;20545;-62
2022/04/30 11:28:17;;;;;;;4.80;2.25;;;;;;;;;;5034038;28;20033;-62
2022/04/30 11:30:45;;;;;;;6.00;2.05;;;;;;;;;;5036576;28;20108;-62
2022/04/30 11:33:12;;;;;;;9.30;2.20;;;;;;;;;;5035429;28;21341;-62
2022/04/30 11:35:38;;;;;;;8.57;1.77;;;;;;;;;;5038188;28;20065;-62
2022/04/30 11:38:10;;;;;;;4.18;2.60;;;;;;;;;;5039479;28;20079;-63
2022/04/30 11:40:40;;;;;;;8.10;1.90;;;;;;;;;;5075703;28;20026;-62
2022/04/30 11:43:06;;;;;;;18.13;8.82;;;;;;;;;;5038463;28;20041;-63
2022/04/30 11:45:32;;;;;;;8.75;3.92;;;;;;;;;;5035697;28;20094;-62
2022/04/30 11:48:05;;;;;;;3.95;2.35;;;;;;;;;;5038650;28;20025;-62
2022/04/30 11:50:31;;;;;;;11.13;2.88;;;;;;;;;;5037189;28;20090;-62
2022/04/30 11:52:57;;;;;;;4.30;2.45;;;;;;;;;;5035596;28;20094;-62
2022/04/30 11:55:24;;;;;;;7.97;1.92;;;;;;;;;;5039587;28;20052;-62
2022/04/30 11:57:50;;;;;;;7.13;1.88;;;;;;;;;;5038574;28;20033;-62
2022/04/30 12:00:18;;;;;;;4.25;2.00;;;;;;;;;;5037656;28;20029;-62
2022/04/30 12:02:49;;;;;;;3.63;1.90;;;;;;;;;;5037729;28;20035;-62
2022/04/30 12:05:15;;;;;;;2.40;2.00;;;;;;;;;;5034248;28;20029;-62
2022/04/30 12:07:46;;;;;;;6.75;2.00;;;;;;;;;;5038062;28;20037;-62
2022/04/30 12:10:26;;;;;;;7.13;1.92;;;;;;;;;;5035708;28;20056;-63
2022/04/30 12:12:53;;;;;;;7.18;2.08;;;;;;;;;;5040160;28;20753;-62
2022/04/30 12:15:25;;;;;;;3.13;1.67;;;;;;;;;;5035538;28;20049;-62
2022/04/30 12:27:02;;;;;;;5.32;2.38;;;;;;;;;;5031240;28;20029;-63
2022/04/30 12:29:29;;;;;;;4.18;1.52;;;;;;;;;;5032721;28;20038;-61
2022/04/30 12:31:54;;;;;;;6.35;2.33;;;;;;;;;;5040084;28;20091;-63
2022/04/30 12:34:21;;;;;;;4.40;1.75;;;;;;;;;;5037941;28;20025;-62
2022/04/30 12:36:55;;;;;;;9.20;1.98;;;;;;;;;;5037809;28;20120;-59
2022/04/30 12:39:24;;;;;;;7.25;2.10;;;;;;;;;;5038581;28;20051;-63
2022/04/30 12:41:51;;;;;;;2.63;1.63;;;;;;;;;;5035219;28;20022;-62
2022/04/30 12:44:17;;;;;;;4.47;1.70;;;;;;;;;;5042433;28;20120;-62
2022/04/30 12:46:44;;;;;;;5.72;1.80;;;;;;;;;;5044076;28;20147;-62
2022/04/30 12:49:13;;;;;;;5.03;1.70;;;;;;;;;;5035718;28;20112;-62
2022/04/30 12:51:40;;;;;;;3.40;1.70;;;;;;;;;;5035681;28;20067;-62
2022/04/30 12:54:09;;;;;;;6.15;2.08;;;;;;;;;;5035184;28;20037;-62
2022/04/30 12:56:35;;;;;;;3.20;1.75;;;;;;;;;;5034563;28;20179;-62
2022/04/30 12:59:01;;;;;;;9.07;1.67;;;;;;;;;;5035260;28;20032;-64
2022/04/30 13:01:26;;;;;;;4.13;1.80;;;;;;;;;;5038834;28;20029;-62
2022/04/30 13:03:52;;;;;;;3.97;1.73;;;;;;;;;;5030774;28;20466;-62
2022/04/30 13:06:18;;;;;;;2.10;1.85;;;;;;;;;;5037838;28;20047;-65
2022/04/30 13:14:12;;;;;;;4.57;1.70;;;;;;;;;;5034348;28;20074;-64
2022/04/30 13:16:38;;;;;;;2.67;1.60;;;;;;;;;;5043869;28;20469;-64
2022/04/30 13:19:04;;;;;;;5.10;1.90;;;;;;;;;;5038239;28;20033;-63
2022/04/30 13:21:30;;;;;;;6.28;1.70;;;;;;;;;;5040265;28;20025;-63
2022/04/30 13:23:56;;;;;;;6.78;1.73;;;;;;;;;;5040200;28;20504;-63
2022/04/30 13:26:22;;;;;;;3.28;1.88;;;;;;;;;;5036525;28;20029;-63
2022/04/30 13:28:48;;;;;;;5.80;2.70;;;;;;;;;;5042297;28;20021;-62
2022/04/30 13:31:14;;;;;;;8.43;1.80;;;;;;;;;;5038121;28;20029;-63
2022/04/30 13:33:40;;;;;;;2.88;1.80;;;;;;;;;;5039640;28;20040;-63
2022/04/30 13:36:07;;;;;;;2.65;1.67;;;;;;;;;;5041869;28;20036;-65
2022/04/30 13:38:33;;;;;;;9.52;1.90;;;;;;;;;;5034669;28;20016;-64
2022/04/30 13:40:59;;;;;;;8.95;1.73;;;;;;;;;;5042700;28;20524;-63
2022/04/30 13:43:25;;;;;;;5.68;1.90;;;;;;;;;;5036431;28;20030;-63
2022/04/30 13:45:51;;;;;;;2.97;2.05;;;;;;;;;;5039260;28;20033;-63
2022/04/30 13:48:18;;;;;;;4.72;1.60;;;;;;;;;;5041844;28;20024;-65
2022/04/30 13:50:45;;;;;;;1.67;1.50;;;;;;;;;;5041725;28;20028;-63
2022/04/30 13:53:11;;;;;;;5.50;1.88;;;;;;;;;;5035262;28;20043;-63
2022/04/30 13:55:37;;;;;;;1.67;1.58;;;;;;;;;;5043819;28;20025;-63
2022/04/30 13:58:03;;;;;;;1.90;1.70;;;;;;;;;;5042508;28;20082;-64
2022/04/30 14:00:29;;;;;;;1.90;1.73;;;;;;;;;;5045234;28;20035;-63
2022/04/30 14:02:55;;;;;;;4.70;1.73;;;;;;;;;;5041967;28;20440;-63
2022/04/30 14:05:21;;;;;;;4.28;1.67;;;;;;;;;;5035442;28;20029;-64
2022/04/30 14:07:47;;;;;;;3.70;1.45;;;;;;;;;;5044264;28;20053;-63
2022/04/30 14:10:12;;;;;;;5.75;1.80;;;;;;;;;;5038710;28;20445;-64
2022/04/30 14:12:38;;;;;;;3.38;1.40;;;;;;;;;;5036406;28;20114;-63
2022/04/30 14:15:05;;;;;;;4.85;1.52;;;;;;;;;;5035704;28;20478;-62
2022/04/30 14:20:17;;;;;;;4.28;1.70;;;;;;;;;;5033580;28;20613;-63
2022/04/30 14:22:46;;;;;;;38.65;2.65;;;;;;;;;;5038559;28;20021;-63
2022/04/30 14:25:15;;;;;;;6.93;1.60;;;;;;;;;;5037228;28;20089;-63
2022/04/30 14:27:42;;;;;;;3.95;1.67;;;;;;;;;;5038820;28;20367;-63
2022/04/30 14:30:11;;;;;;;2.75;1.83;;;;;;;;;;5034956;28;20714;-62
2022/04/30 14:32:37;;;;;;;2.28;2.00;;;;;;;;;;5037731;28;20037;-64
2022/04/30 14:35:06;;;;;;;4.15;2.20;;;;;;;;;;5036817;28;20025;-64
2022/04/30 14:37:33;;;;;;;4.45;1.70;;;;;;;;;;5040683;28;20116;-62
2022/04/30 14:40:04;;;;;;;2.65;1.70;;;;;;;;;;5038549;28;20055;-63
2022/04/30 14:42:30;;;;;;;5.30;1.90;;;;;;;;;;5037965;28;20521;-63
2022/04/30 14:44:56;;;;;;;4.13;1.58;;;;;;;;;;5036175;28;20090;-64
2022/04/30 14:47:22;;;;;;;5.85;1.60;;;;;;;;;;5038547;28;20060;-63
2022/04/30 14:49:49;;;;;;;3.58;1.90;;;;;;;;;;5035731;28;20390;-64
2022/04/30 14:52:14;;;;;;;6.00;1.88;;;;;;;;;;5041294;28;20030;-63
2022/04/30 14:54:40;;;;;;;6.40;1.83;;;;;;;;;;5037107;28;20119;-63
2022/04/30 14:57:06;;;;;;;5.43;2.00;;;;;;;;;;5037382;28;20103;-64
2022/04/30 14:59:31;;;;;;;2.67;1.60;;;;;;;;;;5034209;28;20489;-63
2022/04/30 15:01:57;;;;;;;3.08;2.08;;;;;;;;;;5035554;28;20033;-63
2022/04/30 15:04:24;;;;;;;6.68;2.20;;;;;;;;;;5038091;28;20898;-63
2022/04/30 15:06:52;;;;;;;5.15;2.22;;;;;;;;;;5035676;28;20475;-63
2022/04/30 15:09:18;;;;;;;7.68;2.33;;;;;;;;;;5034323;28;20532;-63
2022/04/30 15:11:43;;;;;;;5.78;2.20;;;;;;;;;;5035015;28;20104;-63
2022/04/30 15:14:09;;;;;;;2.80;1.75;;;;;;;;;;5035031;28;20052;-62
2022/04/30 15:16:34;;;;;;;10.02;2.15;;;;;;;;;;5036945;28;20033;-63
2022/04/30 15:19:00;;;;;;;8.95;2.22;;;;;;;;;;5042766;28;20061;-64
2022/04/30 15:21:26;;;;;;;2.25;1.75;;;;;;;;;;5037801;28;20029;-63
2022/04/30 15:23:52;;;;;;;3.35;1.92;;;;;;;;;;5035117;28;20090;-64
2022/04/30 15:26:17;;;;;;;2.35;1.50;;;;;;;;;;5036217;28;20040;-63
2022/04/30 15:28:43;;;;;;;7.20;1.85;;;;;;;;;;5036380;28;20112;-63
2022/04/30 15:31:09;;;;;;;5.30;1.90;;;;;;;;;;5038865;28;20037;-65
2022/04/30 15:33:35;;;;;;;10.48;2.17;;;;;;;;;;5038043;28;20498;-63
2022/04/30 15:36:04;;;;;;;3.78;2.05;;;;;;;;;;5036134;28;20047;-63
2022/04/30 15:38:30;;;;;;;5.18;1.80;;;;;;;;;;5033083;28;20029;-63